createdAt,value
2024-02-12T15:20:14.015Z,94720.53
2024-02-12T15:22:42.616Z,94722.61
2024-02-12T15:25:10.990Z,94724.98
2024-02-12T15:27:42.180Z,94727.70
2024-02-12T15:30:11.443Z,94727.02
2024-02-12T15:32:39.900Z,94735.73
2024-02-12T15:35:15.443Z,94733.60
2024-02-12T15:37:45.134Z,94736.73
2024-02-12T15:40:21.099Z,94740.75
2024-02-12T15:42:54.209Z,94740.80
2024-02-12T15:45:25.271Z,94746.53
2024-02-12T15:47:58.406Z,94749.23
2024-02-12T15:50:28.585Z,94755.65
2024-02-12T15:52:59.147Z,94758.17
2024-02-12T15:55:31.089Z,94763.36
2024-02-12T15:58:03.145Z,94763.71
2024-02-12T16:00:36.917Z,94770.88
2024-02-12T16:03:05.568Z,94771.00
2024-02-12T16:06:02.764Z,94776.74
2024-02-12T16:08:39.144Z,94776.91
2024-02-12T16:11:10.500Z,94781.42
2024-02-12T16:13:40.164Z,94779.83
2024-02-12T16:16:11.573Z,94776.80
2024-02-12T16:18:40.415Z,94779.31
2024-02-12T16:21:09.610Z,94785.61
2024-02-12T16:23:38.482Z,94786.77
2024-02-12T16:26:11.629Z,94782.79
2024-02-12T16:28:40.382Z,94788.01
2024-02-12T16:31:12.512Z,94788.85
2024-02-12T16:33:41.455Z,94790.72
2024-02-12T16:36:10.132Z,94786.88
2024-02-12T16:38:38.697Z,94787.43
2024-02-12T16:41:07.646Z,94784.46
2024-02-12T16:43:36.627Z,94789.79
2024-02-12T16:46:06.129Z,94791.41
2024-02-12T16:48:41.593Z,94797.23
2024-02-12T16:51:17.724Z,94796.27
2024-02-12T16:53:46.357Z,94799.24
2024-02-12T16:56:17.552Z,94798.05
2024-02-12T16:58:46.146Z,94797.48
2024-02-12T17:01:14.630Z,94798.61
2024-02-12T17:03:43.201Z,94798.77
2024-02-12T17:06:11.802Z,94796.68
2024-02-12T17:08:45.483Z,94796.39
2024-02-12T17:11:14.677Z,94798.55
2024-02-12T17:13:44.656Z,94797.92
2024-02-12T17:16:23.526Z,94802.47
2024-02-12T17:18:58.839Z,94805.83
2024-02-12T17:21:29.140Z,94808.69
2024-02-12T17:23:57.643Z,94809.42
2024-02-12T17:26:26.156Z,94810.27
2024-02-12T17:28:57.360Z,94807.13
2024-02-12T17:31:26.076Z,94805.48
2024-02-12T17:33:55.989Z,94803.28
2024-02-12T17:36:24.655Z,94808.39
2024-02-12T17:38:53.067Z,94809.08
2024-02-12T17:41:21.558Z,94807.74
2024-02-12T17:43:50.549Z,94808.91
2024-02-12T17:46:18.956Z,94813.83
2024-02-12T17:48:52.611Z,94815.27
2024-02-12T17:51:21.291Z,94821.25
2024-02-12T17:53:52.483Z,94823.22
2024-02-12T17:56:20.948Z,94825.37
2024-02-12T17:58:49.432Z,94826.71
2024-02-12T18:01:18.001Z,94821.56
2024-02-12T18:03:46.760Z,94822.92
2024-02-12T18:06:17.407Z,94821.36
2024-02-12T18:08:46.189Z,94825.40
2024-02-12T18:11:14.601Z,94824.49
2024-02-12T18:13:44.413Z,94822.84
2024-02-12T18:16:13.110Z,94822.52
2024-02-12T18:18:41.543Z,94823.64
2024-02-12T18:21:10.679Z,94825.19
2024-02-12T18:23:39.873Z,94831.05
2024-02-12T18:26:10.447Z,94826.83
2024-02-12T18:28:38.890Z,94828.67
2024-02-12T18:31:07.274Z,94828.05
2024-02-12T18:33:35.701Z,94827.23
2024-02-12T18:36:07.058Z,94831.05
2024-02-12T18:38:35.702Z,94832.04
2024-02-12T18:41:11.676Z,94831.42
2024-02-12T18:43:40.138Z,94835.46
2024-02-12T18:46:08.596Z,94844.98
2024-02-12T18:48:37.181Z,94843.51
2024-02-12T18:51:05.853Z,94849.06
2024-02-12T18:53:34.310Z,94846.60
2024-02-12T18:56:05.398Z,94848.91
2024-02-12T18:58:33.905Z,94849.21
2024-02-12T19:01:02.345Z,94850.70
2024-02-12T19:03:30.810Z,94855.05
2024-02-12T19:05:59.304Z,94855.39
2024-02-12T19:08:27.839Z,94858.16
2024-02-12T19:10:56.318Z,94858.77
2024-02-12T19:13:24.840Z,94867.16
2024-02-12T19:15:53.222Z,94869.00
2024-02-12T19:18:21.678Z,94868.91
2024-02-12T19:20:50.260Z,94874.10
2024-02-12T19:23:19.418Z,94875.59
2024-02-12T19:25:49.672Z,94874.61
2024-02-12T19:28:18.206Z,94872.09
2024-02-12T19:30:48.850Z,94875.23
2024-02-12T19:33:17.263Z,94874.45
2024-02-12T19:35:47.937Z,94877.98
2024-02-12T19:38:16.354Z,94874.13
2024-02-12T19:40:45.008Z,94872.89
2024-02-12T19:43:14.327Z,94873.60
2024-02-12T19:45:43.739Z,94873.48
2024-02-12T19:48:12.794Z,94875.45
2024-02-12T19:50:41.802Z,94877.58
2024-02-12T19:53:10.222Z,94878.99
2024-02-12T19:55:38.765Z,94878.66
2024-02-12T19:58:07.135Z,94872.40
2024-02-12T20:00:35.738Z,94875.17
2024-02-12T20:03:08.532Z,94868.46
2024-02-12T20:05:38.288Z,94872.20
2024-02-12T20:08:06.989Z,94871.73
2024-02-12T20:10:35.423Z,94868.16
2024-02-12T20:13:09.611Z,94871.80
2024-02-12T20:15:39.055Z,94876.52
2024-02-12T20:18:10.953Z,94882.16
2024-02-12T20:20:40.238Z,94877.95
2024-02-12T20:23:10.301Z,94883.08
2024-02-12T20:25:38.764Z,94881.13
2024-02-12T20:28:07.620Z,94884.02
2024-02-12T20:30:36.409Z,94882.45
2024-02-12T20:33:06.477Z,94882.21
2024-02-12T20:35:35.219Z,94881.14
2024-02-12T20:38:04.414Z,94881.42
2024-02-12T20:40:33.254Z,94883.80
2024-02-12T20:43:02.271Z,94881.69
2024-02-12T20:45:30.704Z,94890.19
2024-02-12T20:47:59.373Z,94893.67
2024-02-12T20:50:29.577Z,94896.53
2024-02-12T20:52:58.071Z,94900.72
2024-02-12T20:55:26.573Z,94899.23
2024-02-12T20:57:55.884Z,94900.23
2024-02-12T21:00:24.369Z,94903.75
2024-02-12T21:02:53.584Z,94908.86
2024-02-12T21:05:22.067Z,94909.48
2024-02-12T21:07:50.415Z,94912.48
2024-02-12T21:10:18.859Z,94911.90
2024-02-12T21:12:47.261Z,94912.80
2024-02-12T21:15:17.048Z,94914.55
2024-02-12T21:17:46.422Z,94917.45
2024-02-12T21:20:17.226Z,94918.27
2024-02-12T21:22:46.007Z,94920.35
2024-02-12T21:25:15.545Z,94920.67
2024-02-12T21:27:45.854Z,94916.38
2024-02-12T21:30:14.376Z,94920.69
2024-02-12T21:32:44.260Z,94915.66
2024-02-12T21:35:14.171Z,94920.34
2024-02-12T21:37:42.728Z,94920.09
2024-02-12T21:40:13.436Z,94923.75
2024-02-12T21:42:41.717Z,94923.52
2024-02-12T21:45:12.396Z,94922.49
2024-02-12T21:47:40.942Z,94921.27
2024-02-12T21:50:12.541Z,94922.20
2024-02-12T21:52:41.037Z,94931.60
2024-02-12T21:55:25.110Z,94930.02
2024-02-12T21:57:55.248Z,94934.89
2024-02-12T22:00:23.639Z,94940.97
2024-02-12T22:02:53.215Z,94939.98
2024-02-12T22:05:21.941Z,94942.34
2024-02-12T22:07:50.592Z,94945.86
2024-02-12T22:10:19.121Z,94944.80
2024-02-12T22:12:47.501Z,94949.10
2024-02-12T22:15:15.935Z,94951.67
2024-02-12T22:17:44.471Z,94952.34
2024-02-12T22:20:16.211Z,94955.18
2024-02-12T22:22:44.763Z,94946.17
2024-02-12T22:25:13.266Z,94948.10
2024-02-12T22:27:41.680Z,94952.10
2024-02-12T22:30:10.258Z,94956.50
2024-02-12T22:32:40.492Z,94958.20
2024-02-12T22:35:09.530Z,94954.54
2024-02-12T22:37:39.338Z,94950.17
2024-02-12T22:40:11.984Z,94949.55
2024-02-12T22:42:40.414Z,94949.52
2024-02-12T22:45:09.220Z,94952.04
2024-02-12T22:47:37.880Z,94952.00
2024-02-12T22:50:07.153Z,94952.05
2024-02-12T22:52:35.520Z,94955.42
2024-02-12T22:55:04.003Z,94954.83
2024-02-12T22:57:32.466Z,94956.75
2024-02-12T23:00:00.760Z,94952.55
2024-02-12T23:02:31.884Z,94951.55
2024-02-12T23:05:00.209Z,94955.75
2024-02-12T23:07:28.590Z,94956.52
2024-02-12T23:09:57.006Z,94954.98
2024-02-12T23:12:28.364Z,94957.52
2024-02-12T23:14:56.777Z,94958.09
2024-02-12T23:17:25.815Z,94960.46
2024-02-12T23:19:58.479Z,94959.10
2024-02-12T23:22:26.957Z,94961.92
2024-02-12T23:24:56.039Z,94960.38
2024-02-12T23:27:25.916Z,94959.71
2024-02-12T23:29:54.309Z,94963.40
2024-02-12T23:32:22.805Z,94962.55
2024-02-12T23:34:51.253Z,94957.19
2024-02-12T23:37:19.691Z,94958.90
2024-02-12T23:39:47.972Z,94961.39
2024-02-12T23:42:16.837Z,94964.61
2024-02-12T23:44:45.376Z,94963.55
2024-02-12T23:47:14.100Z,94962.65
2024-02-12T23:49:42.848Z,94962.70
2024-02-12T23:52:11.221Z,94964.25
2024-02-12T23:54:39.784Z,94964.85
2024-02-12T23:57:08.156Z,94965.91
2024-02-12T23:59:36.512Z,94971.56
